Time;durP1;ratioP1;P1;durP2;ratioP2;P2;SDS_P1;SDS_P2;PMS_P1;PMS_P2;Temp;Humidity;BMP_temperature;BMP_pressure;BME280_temperature;BME280_humidity;BME280_pressure;Samples;Min_cycle;Max_cycle;Signal;HPM_P1;HPM_P2
2022/11/16 00:02:19;;;;;;;18.33;12.37;;;10.10;99.90;;;;;;4952677;28;20050;-78
2022/11/16 00:04:45;;;;;;;15.97;12.00;;;10.10;99.90;;;;;;4971325;28;20085;-77
2022/11/16 00:07:10;;;;;;;15.50;12.70;;;10.10;99.90;;;;;;4953839;28;20054;-78
2022/11/16 00:09:36;;;;;;;18.73;14.10;;;10.10;99.90;;;;;;4976026;28;20377;-78
2022/11/16 00:12:04;;;;;;;20.00;13.77;;;10.20;99.90;;;;;;4990709;28;20046;-77
2022/11/16 00:14:33;;;;;;;20.43;14.53;;;10.20;99.90;;;;;;4990035;28;20439;-77
2022/11/16 00:17:00;;;;;;;18.10;14.23;;;10.10;99.90;;;;;;4975092;28;20049;-78
2022/11/16 00:19:26;;;;;;;19.87;14.83;;;10.20;99.90;;;;;;4989078;28;20066;-78
2022/11/16 00:21:53;;;;;;;16.40;14.20;;;10.10;99.90;;;;;;4989916;28;20656;-77
2022/11/16 00:24:20;;;;;;;18.27;14.83;;;10.20;99.90;;;;;;4982142;28;20049;-78
2022/11/16 00:26:47;;;;;;;21.80;15.57;;;10.20;99.90;;;;;;4957906;28;20050;-77
2022/11/16 00:29:14;;;;;;;17.73;14.00;;;10.20;99.90;;;;;;4992361;28;20507;-78
2022/11/16 00:31:40;;;;;;;22.07;16.10;;;10.30;99.90;;;;;;4994479;28;20046;-77
2022/11/16 00:34:06;;;;;;;20.30;15.60;;;10.20;99.90;;;;;;4993306;28;20069;-77
2022/11/16 00:36:31;;;;;;;21.00;16.20;;;10.20;99.90;;;;;;4961779;28;20445;-77
2022/11/16 00:38:57;;;;;;;21.43;15.57;;;10.20;99.90;;;;;;4972628;28;20132;-78
2022/11/16 00:41:23;;;;;;;20.00;15.10;;;10.20;99.90;;;;;;4973927;28;20506;-77
2022/11/16 00:43:48;;;;;;;23.87;17.73;;;10.20;99.90;;;;;;4974397;28;20046;-77
2022/11/16 00:46:14;;;;;;;22.37;15.83;;;10.30;99.90;;;;;;4955014;28;20043;-78
2022/11/16 00:48:40;;;;;;;18.03;15.70;;;10.20;99.90;;;;;;4988541;28;20357;-78
2022/11/16 00:51:06;;;;;;;19.97;15.80;;;10.20;99.90;;;;;;4993942;28;20046;-80
2022/11/16 00:53:32;;;;;;;20.07;16.37;;;10.20;99.90;;;;;;4976022;28;20057;-78
2022/11/16 00:55:58;;;;;;;23.27;17.07;;;10.20;99.90;;;;;;4976608;28;20038;-77
2022/11/16 00:58:23;;;;;;;20.07;16.13;;;10.20;99.90;;;;;;4977687;28;20069;-78
2022/11/16 01:00:49;;;;;;;22.70;16.77;;;10.30;99.90;;;;;;4993472;28;20057;-78
2022/11/16 01:03:15;;;;;;;23.10;17.23;;;10.20;99.90;;;;;;4992534;28;20084;-77
2022/11/16 01:05:41;;;;;;;25.97;18.37;;;10.20;99.90;;;;;;4976775;28;20367;-77
2022/11/16 01:08:07;;;;;;;25.20;17.37;;;10.30;99.90;;;;;;4977611;28;20050;-77
2022/11/16 01:10:33;;;;;;;30.53;20.30;;;10.30;99.90;;;;;;4993648;28;20399;-77
2022/11/16 01:12:59;;;;;;;27.63;19.57;;;10.10;99.90;;;;;;4992383;28;20436;-77
2022/11/16 01:15:26;;;;;;;24.70;18.63;;;10.20;99.90;;;;;;4993882;28;20046;-77
2022/11/16 01:17:54;;;;;;;30.07;20.87;;;10.20;99.90;;;;;;4976948;28;20547;-77
2022/11/16 01:20:21;;;;;;;27.83;20.07;;;10.20;99.90;;;;;;4983666;28;20042;-76
2022/11/16 01:22:47;;;;;;;31.40;21.43;;;10.20;99.90;;;;;;4975265;28;20377;-77
2022/11/16 01:25:13;;;;;;;31.50;22.10;;;10.20;99.90;;;;;;4980754;28;20053;-77
2022/11/16 01:27:40;;;;;;;30.30;20.13;;;10.10;99.90;;;;;;4957234;28;20049;-77
2022/11/16 01:30:09;;;;;;;28.67;20.90;;;10.10;99.90;;;;;;4974070;28;20076;-77
2022/11/16 01:32:34;;;;;;;29.90;21.30;;;10.20;99.90;;;;;;4972859;28;20035;-77
2022/11/16 01:35:00;;;;;;;29.30;19.43;;;10.20;99.90;;;;;;4980585;28;20563;-77
2022/11/16 01:37:26;;;;;;;30.93;21.33;;;10.30;99.90;;;;;;4977231;28;20046;-77
2022/11/16 01:39:52;;;;;;;31.23;21.47;;;10.20;99.90;;;;;;4992421;28;20137;-76
2022/11/16 01:42:22;;;;;;;25.00;19.50;;;10.20;99.90;;;;;;4992326;28;20121;-76
2022/11/16 01:44:48;;;;;;;29.30;20.87;;;10.30;99.90;;;;;;4993362;28;20054;-77
2022/11/16 01:47:15;;;;;;;26.20;19.27;;;10.20;99.90;;;;;;4977023;28;20053;-76
2022/11/16 01:49:47;;;;;;;27.50;20.20;;;10.20;99.90;;;;;;4992567;28;20122;-78
2022/11/16 01:52:23;;;;;;;28.60;20.17;;;10.20;99.90;;;;;;4974995;28;20053;-77
2022/11/16 01:54:51;;;;;;;27.03;20.17;;;10.20;99.90;;;;;;4992939;28;20133;-77
2022/11/16 01:57:26;;;;;;;25.40;20.40;;;10.10;99.90;;;;;;4961145;28;20047;-77
2022/11/16 01:59:55;;;;;;;28.50;19.23;;;10.20;99.90;;;;;;4973148;28;20039;-78
2022/11/16 02:02:21;;;;;;;26.70;19.57;;;10.20;99.90;;;;;;4972107;28;20366;-78
2022/11/16 02:04:48;;;;;;;29.80;19.27;;;10.10;99.90;;;;;;4973476;28;20125;-78
2022/11/16 02:09:52;;;;;;;27.97;19.67;;;10.30;99.90;;;;;;4957170;28;20046;-76
2022/11/16 02:10:58;;;;;;;29.87;20.63;;;10.20;99.90;;;;;;4984546;28;20172;-77
2022/11/16 02:13:34;;;;;;;27.23;19.03;;;10.20;99.90;;;;;;4991846;28;20042;-76
2022/11/16 02:16:15;;;;;;;29.23;18.73;;;10.30;99.90;;;;;;4992603;28;20428;-77
2022/11/16 02:18:53;;;;;;;29.52;19.38;;;10.30;99.90;;;;;;4968960;28;20046;-77
2022/11/16 02:21:47;;;;;;;25.47;17.90;;;10.20;99.90;;;;;;4975746;28;20046;-76
2022/11/16 02:24:28;;;;;;;27.87;19.47;;;10.30;99.90;;;;;;4928117;28;20044;-76
2022/11/16 02:27:11;;;;;;;20.33;14.07;;;10.30;99.90;;;;;;4957312;28;20050;-77
2022/11/16 02:29:42;;;;;;;28.40;18.27;;;10.30;99.90;;;;;;4972129;28;20039;-77
2022/11/16 02:32:14;;;;;;;23.92;17.83;;;10.30;99.90;;;;;;4972305;28;20113;-76
2022/11/16 02:34:48;;;;;;;;;;;10.20;99.90;;;;;;4976812;28;20049;-78
2022/11/16 02:37:18;;;;;;;25.40;17.30;;;10.20;99.90;;;;;;4977083;28;20351;-76
2022/11/16 02:39:47;;;;;;;21.00;16.17;;;10.30;99.90;;;;;;4974587;28;20042;-76
2022/11/16 02:42:18;;;;;;;22.67;16.23;;;10.30;99.90;;;;;;4991283;28;20046;-76
2022/11/16 02:44:48;;;;;;;28.80;17.20;;;10.30;99.90;;;;;;4991794;28;20384;-78
2022/11/16 02:47:21;;;;;;;26.30;16.87;;;10.30;99.90;;;;;;4975476;28;20050;-76
2022/11/16 02:49:53;;;;;;;27.27;17.63;;;10.30;99.90;;;;;;4974436;28;20050;-76
2022/11/16 02:52:20;;;;;;;28.20;17.55;;;10.30;99.90;;;;;;4990724;28;20053;-76
2022/11/16 02:54:46;;;;;;;24.27;15.20;;;10.30;99.90;;;;;;4972276;28;20050;-79
2022/11/16 02:57:39;;;;;;;29.50;17.17;;;10.30;99.90;;;;;;4971120;28;20050;-76
2022/11/16 03:00:06;;;;;;;25.13;16.23;;;10.20;99.90;;;;;;4991492;28;20042;-76
2022/11/16 03:02:52;;;;;;;30.20;17.70;;;10.30;99.90;;;;;;4990916;28;20050;-76
2022/11/16 03:05:30;;;;;;;25.73;16.47;;;10.30;99.90;;;;;;4991783;28;20046;-76
2022/11/16 03:08:08;;;;;;;27.20;16.33;;;10.30;99.90;;;;;;4957871;28;20384;-76
2022/11/16 03:13:27;;;;;;;29.63;17.73;;;10.30;99.90;;;;;;4971215;28;20117;-77
2022/11/16 03:15:55;;;;;;;25.45;17.23;;;10.20;99.90;;;;;;4954187;28;20055;-76
2022/11/16 03:18:22;;;;;;;36.93;19.23;;;10.30;99.90;;;;;;4955949;28;20473;-76
2022/11/16 03:20:55;;;;;;;23.77;16.60;;;10.30;99.90;;;;;;4983967;28;20046;-77
2022/11/16 03:23:21;;;;;;;28.03;17.70;;;10.30;99.90;;;;;;4968407;28;20042;-76
2022/11/16 03:25:54;;;;;;;31.23;18.23;;;10.30;99.90;;;;;;4988577;28;20046;-76
2022/11/16 03:28:26;;;;;;;29.73;17.83;;;10.50;99.90;;;;;;4956845;28;20277;-79
2022/11/16 03:30:57;;;;;;;31.50;18.00;;;10.30;99.90;;;;;;4974039;28;20047;-76
2022/11/16 03:33:23;;;;;;;;;;;10.30;99.90;;;;;;4990657;28;20271;-78
2022/11/16 03:36:25;;;;;;;27.67;17.93;;;10.30;99.90;;;;;;4978003;28;20253;-76
2022/11/16 03:38:51;;;;;;;30.00;17.97;;;10.40;99.90;;;;;;4950746;28;20057;-76
2022/11/16 03:41:20;;;;;;;26.70;17.93;;;10.30;99.90;;;;;;4971535;28;20051;-76
2022/11/16 03:43:48;;;;;;;32.00;19.17;;;10.20;99.90;;;;;;4970751;28;20272;-78
2022/11/16 03:46:16;;;;;;;33.20;20.23;;;10.30;99.90;;;;;;4945214;28;20110;-77
2022/11/16 03:48:42;;;;;;;28.10;18.33;;;10.30;99.90;;;;;;4965052;28;20385;-77
2022/11/16 03:51:09;;;;;;;28.70;18.30;;;10.20;99.90;;;;;;4953862;28;20556;-76
2022/11/16 03:53:36;;;;;;;31.80;19.00;;;10.20;99.90;;;;;;4953172;28;20042;-76
2022/11/16 03:56:02;;;;;;;31.23;19.70;;;10.20;99.90;;;;;;4976191;28;20436;-77
2022/11/16 03:58:28;;;;;;;30.83;18.93;;;10.30;99.90;;;;;;4974630;28;20053;-77
2022/11/16 04:00:53;;;;;;;29.87;18.90;;;10.20;99.90;;;;;;4990450;28;20050;-76
2022/11/16 04:03:20;;;;;;;35.17;20.00;;;10.30;99.90;;;;;;4988692;28;20054;-76
2022/11/16 04:25:40;;;;;;;32.57;21.03;;;10.20;99.90;;;;;;4953437;28;20086;-76
2022/11/16 04:28:13;;;;;;;38.77;22.50;;;10.10;99.90;;;;;;4954851;28;20043;-77
2022/11/16 04:39:20;;;;;;;34.77;22.40;;;10.30;99.90;;;;;;4970686;28;20061;-76
2022/11/16 04:42:31;;;;;;;37.50;21.70;;;10.20;99.90;;;;;;4970736;28;20133;-77
2022/11/16 04:47:20;;;;;;;34.07;21.93;;;10.10;99.90;;;;;;4958269;28;20038;-81
2022/11/16 04:49:45;;;;;;;37.10;22.23;;;10.20;99.90;;;;;;4986218;28;20483;-79
2022/11/16 04:52:11;;;;;;;34.00;22.67;;;10.20;99.90;;;;;;4986064;28;20054;-76
2022/11/16 04:54:37;;;;;;;34.97;22.20;;;10.10;99.90;;;;;;4986433;28;20165;-79
2022/11/16 04:57:02;;;;;;;32.13;22.23;;;10.10;99.90;;;;;;4966755;28;20954;-77
2022/11/16 04:59:28;;;;;;;36.30;22.73;;;10.20;99.90;;;;;;4988774;28;20562;-79
2022/11/16 05:02:09;;;;;;;39.10;23.03;;;10.10;99.90;;;;;;4990251;28;20046;-76
2022/11/16 05:04:40;;;;;;;37.10;23.45;;;10.10;99.90;;;;;;4988983;28;20148;-80
2022/11/16 05:07:10;;;;;;;35.78;22.88;;;10.20;99.90;;;;;;4972202;28;20345;-82
2022/11/16 05:09:41;;;;;;;36.58;23.83;;;10.10;99.90;;;;;;4980767;28;20500;-79
2022/11/16 05:12:13;;;;;;;35.95;22.40;;;10.20;99.90;;;;;;4965774;28;20144;-79
2022/11/16 05:14:40;;;;;;;39.53;23.60;;;10.00;99.90;;;;;;4985545;28;20038;-76
2022/11/16 05:17:06;;;;;;;41.53;23.57;;;10.10;99.90;;;;;;4972275;28;20153;-81
2022/11/16 05:22:16;;;;;;;39.67;22.80;;;10.20;99.90;;;;;;4973510;28;20100;-78
2022/11/16 05:24:42;;;;;;;29.90;20.77;;;10.20;99.90;;;;;;4984905;28;20046;-78
2022/11/16 05:27:10;;;;;;;34.23;23.27;;;10.10;99.90;;;;;;4976569;28;20046;-79
2022/11/16 05:29:37;;;;;;;35.53;22.37;;;10.10;99.90;;;;;;4976230;28;20050;-78
2022/11/16 05:32:04;;;;;;;36.87;24.37;;;10.20;99.90;;;;;;4993168;28;20141;-75
2022/11/16 05:34:29;;;;;;;40.20;23.93;;;10.10;99.90;;;;;;4990082;28;20113;-76
2022/11/16 05:36:56;;;;;;;44.13;25.60;;;10.20;99.90;;;;;;4958498;28;20050;-77
2022/11/16 05:39:22;;;;;;;36.73;23.37;;;10.20;99.90;;;;;;4973111;28;20047;-76
2022/11/16 05:41:48;;;;;;;44.83;24.83;;;10.20;99.90;;;;;;4973799;28;20062;-76
2022/11/16 05:44:15;;;;;;;45.23;26.30;;;10.10;99.90;;;;;;4972738;28;20051;-76
2022/11/16 05:46:41;;;;;;;40.27;24.63;;;10.20;99.90;;;;;;4943079;28;20073;-78
2022/11/16 05:49:08;;;;;;;42.13;26.83;;;10.10;99.90;;;;;;4970725;28;20389;-78
2022/11/16 05:51:35;;;;;;;44.10;25.00;;;10.10;99.90;;;;;;4973236;28;20042;-75
2022/11/16 05:54:02;;;;;;;46.37;26.23;;;10.00;99.90;;;;;;4972583;28;20054;-77
2022/11/16 05:56:28;;;;;;;41.80;25.23;;;10.10;99.90;;;;;;4970115;28;20551;-77
2022/11/16 05:58:54;;;;;;;45.90;26.87;;;10.10;99.90;;;;;;4989344;28;20073;-76
2022/11/16 06:01:19;;;;;;;45.07;25.53;;;10.10;99.90;;;;;;4992390;28;20218;-76
2022/11/16 06:03:45;;;;;;;52.10;27.47;;;10.00;99.90;;;;;;4991372;28;20053;-75
2022/11/16 06:06:11;;;;;;;44.40;26.57;;;10.00;99.90;;;;;;4984960;28;20061;-75
2022/11/16 06:08:37;;;;;;;47.13;26.57;;;10.10;99.90;;;;;;4982745;28;20046;-75
2022/11/16 06:11:05;;;;;;;40.83;25.70;;;10.10;99.90;;;;;;4991079;28;20439;-76
2022/11/16 06:13:31;;;;;;;38.63;25.13;;;10.10;99.90;;;;;;4958257;28;20046;-74
2022/11/16 06:15:57;;;;;;;39.77;25.93;;;10.10;99.90;;;;;;4992443;28;20189;-75
2022/11/16 06:18:23;;;;;;;42.33;26.03;;;10.10;99.90;;;;;;4975639;28;20062;-77
2022/11/16 06:20:49;;;;;;;41.77;26.90;;;10.10;99.90;;;;;;4979774;28;20038;-75
2022/11/16 06:23:15;;;;;;;46.03;27.27;;;10.10;99.90;;;;;;4976051;28;20034;-75
2022/11/16 06:25:40;;;;;;;39.53;26.90;;;10.10;99.90;;;;;;4975002;28;20440;-75
2022/11/16 06:28:06;;;;;;;42.97;27.67;;;10.20;99.90;;;;;;4956622;28;20043;-75
2022/11/16 06:30:32;;;;;;;36.03;26.00;;;10.20;99.90;;;;;;4972196;28;20680;-76
2022/11/16 06:32:58;;;;;;;37.43;25.80;;;10.20;99.90;;;;;;4955032;28;20042;-76
2022/11/16 06:35:24;;;;;;;31.07;23.73;;;10.20;99.90;;;;;;4982185;28;20124;-76
2022/11/16 06:37:49;;;;;;;29.23;21.17;;;10.20;99.90;;;;;;4976626;28;20038;-78
2022/11/16 06:40:15;;;;;;;29.70;21.30;;;10.20;99.90;;;;;;4991761;28;20062;-76
2022/11/16 06:42:41;;;;;;;33.93;21.73;;;10.30;99.90;;;;;;4990667;28;20074;-79
2022/11/16 06:45:08;;;;;;;34.17;23.53;;;10.30;99.90;;;;;;4992577;28;20046;-76
2022/11/16 06:47:34;;;;;;;27.80;20.77;;;10.30;99.90;;;;;;4975746;28;20129;-76
2022/11/16 06:50:00;;;;;;;30.27;22.43;;;10.20;99.90;;;;;;4991959;28;20096;-76
2022/11/16 06:52:26;;;;;;;28.43;22.33;;;10.20;99.90;;;;;;4990982;28;20042;-77
2022/11/16 06:54:51;;;;;;;31.40;24.67;;;10.20;99.90;;;;;;4992005;28;20046;-76
2022/11/16 06:57:17;;;;;;;38.53;28.03;;;10.20;99.90;;;;;;4971410;28;20046;-75
2022/11/16 06:59:43;;;;;;;30.17;24.27;;;10.30;99.90;;;;;;4991751;28;20053;-80
2022/11/16 07:02:10;;;;;;;34.40;28.93;;;10.10;99.90;;;;;;4991007;28;20042;-77
2022/11/16 07:04:35;;;;;;;42.63;31.80;;;10.10;99.90;;;;;;4974760;28;20492;-77
2022/11/16 07:07:01;;;;;;;41.47;30.47;;;10.20;99.90;;;;;;4976384;28;20042;-77
2022/11/16 07:09:27;;;;;;;37.97;26.70;;;10.20;99.90;;;;;;4985528;28;20096;-76
2022/11/16 07:11:52;;;;;;;36.53;25.37;;;10.20;99.90;;;;;;4972441;28;20361;-76
2022/11/16 07:14:18;;;;;;;52.57;37.60;;;10.20;99.90;;;;;;4971297;28;20046;-76
2022/11/16 07:16:43;;;;;;;32.07;22.90;;;10.20;99.90;;;;;;4957696;28;20377;-84
2022/11/16 07:19:09;;;;;;;47.97;27.60;;;10.10;99.90;;;;;;4970972;28;20104;-77
2022/11/16 07:21:37;;;;;;;46.37;25.67;;;10.20;99.90;;;;;;4969812;28;20399;-75
2022/11/16 07:24:02;;;;;;;51.23;26.97;;;10.10;99.90;;;;;;4981966;28;20241;-83
2022/11/16 07:26:30;;;;;;;41.37;25.60;;;10.10;99.90;;;;;;4959116;28;20730;-76
2022/11/16 07:28:57;;;;;;;61.23;38.33;;;10.20;99.90;;;;;;4983947;28;20047;-78
2022/11/16 07:31:24;;;;;;;46.67;32.17;;;10.10;99.90;;;;;;4985664;28;21366;-75
2022/11/16 07:33:51;;;;;;;78.43;43.10;;;10.10;99.90;;;;;;4968836;28;20072;-80
2022/11/16 07:36:17;;;;;;;64.87;37.70;;;10.10;99.90;;;;;;4959179;28;20053;-84
2022/11/16 07:38:43;;;;;;;50.60;31.47;;;10.00;99.90;;;;;;4981510;28;20052;-76
2022/11/16 07:41:11;;;;;;;63.23;39.50;;;10.10;99.90;;;;;;4987131;28;20049;-77
2022/11/16 07:43:38;;;;;;;45.77;30.00;;;10.00;99.90;;;;;;4968169;28;20490;-76
2022/11/16 07:46:10;;;;;;;44.17;26.63;;;10.10;99.90;;;;;;4986501;28;20046;-78
2022/11/16 07:48:36;;;;;;;37.80;24.00;;;10.10;99.90;;;;;;4958554;28;20038;-74
2022/11/16 07:51:06;;;;;;;38.17;22.87;;;10.10;99.90;;;;;;4985539;28;20071;-78
2022/11/16 07:53:33;;;;;;;40.20;24.00;;;10.00;99.90;;;;;;4968964;28;20050;-78
2022/11/16 07:55:59;;;;;;;47.40;28.60;;;10.00;99.90;;;;;;4986778;28;20042;-77
2022/11/16 07:58:27;;;;;;;40.10;25.23;;;10.10;99.90;;;;;;4971317;28;20049;-77
2022/11/16 08:00:53;;;;;;;26.87;19.80;;;10.00;99.90;;;;;;4987745;28;20056;-78
2022/11/16 08:03:19;;;;;;;65.23;39.37;;;10.00;99.90;;;;;;4986615;28;20085;-75
2022/11/16 08:05:45;;;;;;;35.00;21.30;;;10.00;99.90;;;;;;4975264;28;20448;-79
2022/11/16 08:08:11;;;;;;;34.10;19.80;;;9.90;99.90;;;;;;4942107;28;20059;-76
2022/11/16 08:10:37;;;;;;;33.80;20.10;;;10.10;99.90;;;;;;4951190;28;20239;-80
2022/11/16 08:13:03;;;;;;;42.77;21.80;;;9.90;99.90;;;;;;4951422;28;20045;-76
2022/11/16 08:15:29;;;;;;;39.55;21.90;;;9.90;99.90;;;;;;4951797;28;20059;-81
2022/11/16 08:17:57;;;;;;;45.88;23.90;;;9.90;99.90;;;;;;4939442;28;20054;-83
2022/11/16 08:20:23;;;;;;;48.70;23.40;;;9.90;99.90;;;;;;4956604;28;20049;-77
2022/11/16 08:22:49;;;;;;;41.13;22.20;;;10.00;99.90;;;;;;4956141;28;20061;-80
2022/11/16 08:25:14;;;;;;;36.15;21.50;;;9.90;99.90;;;;;;4955562;28;20477;-81
2022/11/16 08:27:40;;;;;;;36.47;22.60;;;9.90;99.90;;;;;;4949412;28;20060;-80
2022/11/16 08:30:08;;;;;;;40.23;22.63;;;9.90;99.90;;;;;;4970654;28;20046;-76
2022/11/16 08:32:37;;;;;;;54.47;24.95;;;10.00;99.90;;;;;;4965054;28;20054;-81
2022/11/16 08:35:04;;;;;;;62.90;27.70;;;9.90;99.90;;;;;;4964475;28;20058;-78
2022/11/16 08:37:30;;;;;;;53.73;25.87;;;9.90;99.90;;;;;;4949800;28;20228;-76
2022/11/16 08:39:56;;;;;;;48.15;24.60;;;10.00;99.90;;;;;;4953279;28;20058;-84
2022/11/16 08:42:22;;;;;;;59.70;26.87;;;10.00;99.90;;;;;;4966962;28;21074;-80
2022/11/16 08:44:48;;;;;;;57.67;26.70;;;10.00;99.90;;;;;;4951367;28;20059;-80
2022/11/16 08:47:14;;;;;;;54.70;26.10;;;10.00;99.90;;;;;;4936116;28;20101;-82
2022/11/16 08:49:39;;;;;;;48.47;24.60;;;10.00;99.90;;;;;;4935980;28;20050;-77
2022/11/16 08:52:05;;;;;;;49.10;25.47;;;10.10;99.90;;;;;;4955369;28;20145;-77
2022/11/16 08:54:31;;;;;;;61.97;27.00;;;10.00;99.90;;;;;;4961135;28;20122;-77
2022/11/16 08:56:56;;;;;;;59.03;26.60;;;9.90;99.90;;;;;;4941119;28;20097;-77
2022/11/16 08:59:22;;;;;;;47.73;23.83;;;10.10;99.90;;;;;;4953888;28;20038;-79
2022/11/16 09:01:51;;;;;;;47.77;24.73;;;10.00;99.90;;;;;;4937057;28;20054;-82
2022/11/16 09:04:17;;;;;;;48.43;24.43;;;10.00;99.90;;;;;;4959577;28;20041;-76
2022/11/16 09:06:43;;;;;;;49.17;24.83;;;10.00;99.90;;;;;;4941732;28;20086;-80
2022/11/16 09:09:10;;;;;;;45.20;24.60;;;10.10;99.90;;;;;;4953879;28;20064;-77
2022/11/16 09:11:36;;;;;;;55.97;25.37;;;10.10;99.90;;;;;;4969020;28;20030;-77
2022/11/16 09:14:01;;;;;;;49.00;25.10;;;10.10;99.90;;;;;;4937591;28;20109;-78
2022/11/16 09:16:27;;;;;;;50.27;25.67;;;10.20;99.90;;;;;;4929158;28;20083;-76
2022/11/16 09:18:53;;;;;;;46.37;25.50;;;10.10;99.90;;;;;;4950330;28;20059;-83
2022/11/16 09:21:22;;;;;;;46.87;25.67;;;10.20;99.90;;;;;;4971742;28;20050;-77
2022/11/16 09:23:48;;;;;;;52.57;26.83;;;10.20;99.90;;;;;;4969111;28;20188;-76
2022/11/16 09:26:15;;;;;;;42.37;25.20;;;10.20;99.90;;;;;;4951872;28;20702;-80
2022/11/16 09:28:41;;;;;;;59.80;29.43;;;10.20;99.90;;;;;;4953235;28;20050;-76
2022/11/16 09:31:08;;;;;;;50.07;27.83;;;10.30;99.90;;;;;;4973733;28;20042;-79
2022/11/16 09:33:34;;;;;;;49.23;28.03;;;10.30;99.90;;;;;;4972738;28;20407;-81
2022/11/16 09:36:08;;;;;;;47.97;27.33;;;10.30;99.90;;;;;;4968811;28;20050;-79
2022/11/16 09:38:38;;;;;;;48.95;27.70;;;10.40;99.90;;;;;;4947412;28;20391;-76
2022/11/16 09:41:52;;;;;;;48.77;28.10;;;10.30;99.90;;;;;;4955320;28;20055;-76
2022/11/16 09:44:23;;;;;;;46.17;27.37;;;10.50;99.90;;;;;;4958012;28;20039;-77
2022/11/16 09:46:54;;;;;;;;;;;10.50;99.90;;;;;;4959198;28;20066;-82
2022/11/16 09:49:25;;;;;;;48.97;27.80;;;10.60;99.90;;;;;;4954586;28;19930;-83
2022/11/16 09:51:54;;;;;;;56.30;30.05;;;10.50;99.90;;;;;;4972132;28;20368;-81
2022/11/16 09:54:24;;;;;;;48.40;28.20;;;10.40;99.90;;;;;;4971155;28;20419;-79
2022/11/16 09:56:55;;;;;;;49.70;29.02;;;10.40;99.90;;;;;;4926446;28;20512;-77
2022/11/16 09:59:37;;;;;;;51.47;29.08;;;10.60;99.90;;;;;;4966103;28;20054;-79
2022/11/16 10:02:36;;;;;;;44.90;27.37;;;10.70;99.90;;;;;;4947273;28;20054;-81
2022/11/16 10:05:23;;;;;;;43.30;27.60;;;10.70;99.90;;;;;;4954512;28;20478;-79
2022/11/16 10:08:01;;;;;;;35.75;23.88;;;10.80;99.90;;;;;;4950251;28;20050;-79
2022/11/16 10:11:04;;;;;;;33.45;22.23;;;10.80;99.90;;;;;;4938922;28;20058;-77
2022/11/16 10:13:29;;;;;;;32.63;22.42;;;10.90;99.90;;;;;;4958359;28;20137;-79
2022/11/16 10:16:01;;;;;;;29.90;21.45;;;10.90;99.90;;;;;;4973642;28;20393;-78
2022/11/16 10:18:39;;;;;;;36.58;21.42;;;10.90;99.90;;;;;;4956362;28;20062;-80
2022/11/16 10:21:36;;;;;;;27.42;19.00;;;10.90;99.90;;;;;;4963175;28;20105;-83
2022/11/16 10:24:25;;;;;;;23.92;18.00;;;10.80;99.90;;;;;;4954545;28;20051;-76
2022/11/16 10:27:17;;;;;;;27.53;19.57;;;10.80;99.90;;;;;;4940180;28;20086;-77
2022/11/16 10:29:54;;;;;;;27.40;19.73;;;10.80;99.90;;;;;;4933465;28;20133;-81
2022/11/16 10:32:31;;;;;;;27.52;19.58;;;10.90;99.90;;;;;;4966890;28;20408;-81
2022/11/16 10:35:16;;;;;;;28.95;19.50;;;10.80;99.90;;;;;;4947577;28;20133;-77
2022/11/16 10:37:50;;;;;;;34.83;24.55;;;10.90;99.90;;;;;;4940624;28;20059;-80
2022/11/16 10:40:26;;;;;;;30.77;21.10;;;11.00;99.90;;;;;;4951450;28;20063;-79
2022/11/16 10:43:13;;;;;;;34.43;22.63;;;11.00;99.90;;;;;;4967613;28;20149;-79
2022/11/16 10:46:02;;;;;;;26.98;20.67;;;11.10;99.90;;;;;;4959249;28;20042;-76
2022/11/16 10:48:41;;;;;;;29.70;19.73;;;11.10;99.90;;;;;;4956209;28;20046;-81
2022/11/16 10:51:09;;;;;;;31.08;20.10;;;11.10;99.90;;;;;;4954345;28;20572;-83
2022/11/16 10:53:37;;;;;;;27.63;18.23;;;11.10;99.90;;;;;;4959117;28;20104;-78
2022/11/16 10:56:36;;;;;;;33.20;19.98;;;11.30;99.90;;;;;;4945439;28;20093;-77
2022/11/16 10:59:11;;;;;;;26.13;17.52;;;11.60;99.90;;;;;;4968606;28;20038;-79
2022/11/16 11:01:56;;;;;;;30.75;21.30;;;12.10;99.90;;;;;;4953468;28;20097;-79
2022/11/16 11:04:23;;;;;;;21.08;15.18;;;12.50;99.90;;;;;;4944002;28;20493;-80
2022/11/16 11:06:55;;;;;;;20.60;14.65;;;12.30;99.90;;;;;;4947318;28;20625;-78
2022/11/16 11:09:26;;;;;;;20.40;15.07;;;12.10;99.90;;;;;;4961254;28;20416;-81
2022/11/16 11:15:11;;;;;;;21.70;13.15;;;12.00;99.90;;;;;;4963135;28;20065;-78
2022/11/16 11:17:41;;;;;;;20.08;12.70;;;11.80;99.90;;;;;;4936632;28;20138;-77
2022/11/16 11:20:27;;;;;;;21.35;12.25;;;12.00;99.90;;;;;;4943367;28;20039;-77
2022/11/16 11:23:03;;;;;;;16.90;11.73;;;12.70;99.90;;;;;;4949035;28;20069;-78
2022/11/16 11:25:33;;;;;;;15.38;11.20;;;12.90;99.90;;;;;;4946697;28;20046;-77
2022/11/16 11:28:25;;;;;;;13.60;9.35;;;13.20;99.90;;;;;;4943322;28;20329;-84
2022/11/16 11:31:05;;;;;;;17.10;10.52;;;13.20;99.90;;;;;;4953573;28;20237;-80
2022/11/16 11:33:48;;;;;;;16.77;10.35;;;13.00;99.90;;;;;;4940963;28;20055;-77
2022/11/16 11:36:19;;;;;;;15.88;9.88;;;13.00;99.90;;;;;;4947844;28;20050;-81
2022/11/16 11:39:25;;;;;;;14.68;8.93;;;12.70;99.90;;;;;;4946704;28;20373;-84
2022/11/16 11:42:20;;;;;;;15.00;9.48;;;12.30;99.90;;;;;;4958008;28;20745;-81
2022/11/16 11:44:53;;;;;;;15.18;8.77;;;12.10;99.90;;;;;;4953036;28;20082;-81
2022/11/16 11:47:31;;;;;;;17.42;9.82;;;12.00;99.90;;;;;;4932353;28;20528;-78
2022/11/16 11:50:20;;;;;;;14.40;9.40;;;11.90;99.90;;;;;;4951144;28;20065;-77
2022/11/16 11:53:00;;;;;;;18.00;11.05;;;12.10;99.90;;;;;;4959166;28;20134;-77
2022/11/16 11:55:27;;;;;;;20.48;10.65;;;12.40;99.90;;;;;;4958912;28;20622;-82
2022/11/16 11:57:54;;;;;;;13.70;10.10;;;12.60;99.90;;;;;;4943713;28;20517;-80
2022/11/16 12:00:20;;;;;;;15.40;10.00;;;12.70;99.90;;;;;;4958413;28;20050;-78
2022/11/16 12:03:28;;;;;;;16.73;8.02;;;12.60;99.90;;;;;;4956602;28;20047;-81
2022/11/16 12:06:18;;;;;;;12.10;7.40;;;12.50;99.90;;;;;;4886837;29;20151;-80
2022/11/16 12:09:13;;;;;;;13.82;8.15;;;12.40;99.90;;;;;;4950094;28;20512;-82
2022/11/16 12:12:10;;;;;;;14.80;6.35;;;12.40;99.90;;;;;;4952414;28;20377;-78
2022/11/16 12:15:05;;;;;;;14.98;7.20;;;12.30;99.90;;;;;;4933348;28;20046;-78
2022/11/16 12:17:51;;;;;;;11.80;6.50;;;12.60;99.90;;;;;;4940896;28;20112;-84
2022/11/16 12:20:23;;;;;;;10.35;7.07;;;12.80;99.90;;;;;;4956952;28;20794;-82
2022/11/16 12:22:57;;;;;;;11.00;6.57;;;12.60;99.90;;;;;;4954183;28;20433;-77
2022/11/16 12:25:50;;;;;;;9.82;5.20;;;12.50;99.90;;;;;;4957050;28;20061;-79
2022/11/16 12:28:55;;;;;;;11.65;5.40;;;12.90;99.90;;;;;;4947548;28;20523;-83
2022/11/16 12:31:35;;;;;;;10.88;5.47;;;13.50;99.90;;;;;;4961891;28;20104;-83
2022/11/16 12:34:04;;;;;;;7.70;4.10;;;13.60;99.90;;;;;;4965247;28;20050;-84
2022/11/16 12:37:10;;;;;;;9.07;4.25;;;13.50;99.90;;;;;;4946594;28;20128;-82
2022/11/16 12:40:03;;;;;;;13.15;4.10;;;13.20;99.90;;;;;;4958809;28;20063;-79
2022/11/16 12:42:36;;;;;;;8.02;3.78;;;12.80;99.90;;;;;;4952777;28;20358;-77
2022/11/16 12:45:18;;;;;;;8.38;3.50;;;12.60;99.90;;;;;;4958664;28;20138;-80
2022/11/16 12:48:06;;;;;;;7.25;3.30;;;12.50;99.90;;;;;;4922156;28;20478;-84
2022/11/16 12:50:42;;;;;;;8.82;3.50;;;12.40;99.90;;;;;;4958881;28;20054;-77
2022/11/16 12:53:39;;;;;;;11.35;3.72;;;12.10;99.90;;;;;;4955850;28;20054;-82
2022/11/16 12:56:11;;;;;;;13.63;4.32;;;12.00;99.90;;;;;;4935312;28;20054;-80
2022/11/16 12:58:54;;;;;;;11.43;2.80;;;11.90;99.90;;;;;;4952882;28;20081;-78
2022/11/16 13:01:41;;;;;;;9.05;2.90;;;11.90;99.90;;;;;;4961460;28;20057;-83
2022/11/16 13:04:17;;;;;;;8.93;2.60;;;12.00;99.90;;;;;;4965195;28;20673;-82
2022/11/16 13:07:05;;;;;;;11.93;3.13;;;11.90;99.90;;;;;;4946163;28;20650;-83
2022/11/16 13:09:41;;;;;;;7.90;2.40;;;11.80;99.90;;;;;;4956844;28;20058;-80
2022/11/16 13:12:14;;;;;;;8.63;2.65;;;11.90;99.90;;;;;;4966482;28;20112;-78
2022/11/16 13:14:48;;;;;;;9.95;2.50;;;11.90;99.90;;;;;;4961656;28;20061;-82
2022/11/16 13:17:24;;;;;;;8.80;2.85;;;11.90;99.90;;;;;;4943657;28;20685;-81
2022/11/16 13:20:20;;;;;;;9.48;2.88;;;11.80;99.90;;;;;;4963541;28;20062;-80
2022/11/16 13:23:01;;;;;;;9.68;2.80;;;11.80;99.90;;;;;;4942071;28;20440;-80
2022/11/16 13:25:52;;;;;;;11.88;2.60;;;11.80;99.90;;;;;;4962278;28;20069;-78
2022/11/16 13:28:26;;;;;;;8.23;2.63;;;11.70;99.90;;;;;;4939101;28;20058;-78
2022/11/16 13:31:11;;;;;;;9.70;2.63;;;11.80;99.90;;;;;;4955964;28;20676;-81
2022/11/16 13:33:46;;;;;;;10.50;2.67;;;11.70;99.90;;;;;;4938479;28;20197;-79
2022/11/16 13:36:30;;;;;;;7.38;2.33;;;11.60;99.90;;;;;;4929355;28;20133;-80